createdAt,value
2023-04-08T00:00:36.633Z,533.5
2023-04-08T00:01:38.718Z,533.4
2023-04-08T00:02:41.151Z,533.6
2023-04-08T00:03:43.810Z,533.6
2023-04-08T00:04:45.885Z,533.6
2023-04-08T00:05:47.720Z,533.8
2023-04-08T00:06:50.066Z,533.5
2023-04-08T00:07:52.033Z,533.4
2023-04-08T00:08:53.895Z,533.3
2023-04-08T00:09:55.737Z,533.4
2023-04-08T00:10:57.494Z,533.2
2023-04-08T00:11:59.329Z,532.9
2023-04-08T00:13:01.292Z,533.1
2023-04-08T00:14:03.137Z,533.1
2023-04-08T00:15:05.097Z,533.6
2023-04-08T00:16:06.942Z,533.2
2023-04-08T00:17:09.032Z,532.9
2023-04-08T00:18:11.277Z,533.2
2023-04-08T00:19:13.135Z,532.9
2023-04-08T00:20:15.157Z,532.7
2023-04-08T00:21:16.911Z,532.6
2023-04-08T00:22:18.754Z,532.7
2023-04-08T00:23:20.816Z,532.7
2023-04-08T00:24:22.657Z,532.7
2023-04-08T00:25:26.507Z,532.4
2023-04-08T00:26:28.487Z,532.7
2023-04-08T00:27:30.266Z,532.8
2023-04-08T00:28:32.124Z,532.7
2023-04-08T00:29:34.073Z,532.6
2023-04-08T00:30:36.066Z,532.6
2023-04-08T00:31:37.970Z,532
2023-04-08T00:32:40.082Z,532.5
2023-04-08T00:33:42.089Z,532.6
2023-04-08T00:34:43.960Z,532.6
2023-04-08T00:35:45.988Z,532.9
2023-04-08T00:36:47.783Z,532.7
2023-04-08T00:37:49.586Z,532.4
2023-04-08T00:38:52.109Z,532.8
2023-04-08T00:39:54.034Z,532.8
2023-04-08T00:40:55.852Z,532.9
2023-04-08T00:41:57.701Z,532.8
2023-04-08T00:42:59.659Z,533.1
2023-04-08T00:44:01.609Z,532.9
2023-04-08T00:45:03.460Z,532.6
2023-04-08T00:46:05.389Z,532.7
2023-04-08T00:47:07.213Z,532.4
2023-04-08T00:48:09.137Z,532.4
2023-04-08T00:49:11.159Z,531.8
2023-04-08T00:50:13.058Z,532.2
2023-04-08T00:51:15.070Z,531.7
2023-04-08T00:52:16.915Z,531.9
2023-04-08T00:53:18.676Z,531.4
2023-04-08T00:54:20.627Z,531.7
2023-04-08T00:55:22.462Z,531.3
2023-04-08T00:56:24.320Z,531.6
2023-04-08T00:57:26.277Z,531.8
2023-04-08T00:58:28.044Z,531.7
2023-04-08T00:59:30.001Z,532.1
2023-04-08T01:00:31.840Z,532
2023-04-08T01:01:34.059Z,532.1
2023-04-08T01:02:36.855Z,532.2
2023-04-08T01:03:39.271Z,532
2023-04-08T01:04:41.178Z,532.4
2023-04-08T01:05:43.088Z,532.3
2023-04-08T01:06:44.968Z,532.2
2023-04-08T01:07:46.821Z,532.3
2023-04-08T01:08:49.791Z,532.2
2023-04-08T01:09:51.957Z,531.8
2023-04-08T01:10:53.813Z,531.9
2023-04-08T01:11:55.650Z,531.9
2023-04-08T01:12:57.496Z,532.2
2023-04-08T01:13:59.457Z,532.2
2023-04-08T01:15:01.453Z,532.2
2023-04-08T01:16:03.683Z,532.4
2023-04-08T01:17:05.612Z,532.2
2023-04-08T01:18:07.572Z,532.3
2023-04-08T01:19:09.529Z,532.5
2023-04-08T01:20:11.372Z,532.4
2023-04-08T01:21:13.253Z,532.4
2023-04-08T01:22:15.081Z,532.4
2023-04-08T01:23:16.923Z,532.5
2023-04-08T01:24:18.872Z,532.4
2023-04-08T01:25:20.720Z,532.5
2023-04-08T01:26:22.587Z,532.6
2023-04-08T01:27:24.531Z,532.7
2023-04-08T01:28:26.310Z,532.4
2023-04-08T01:29:28.068Z,532.1
2023-04-08T01:30:29.874Z,532.3
2023-04-08T01:31:32.084Z,532.3
2023-04-08T01:32:34.410Z,532.4
2023-04-08T01:33:36.246Z,532.5
2023-04-08T01:34:38.000Z,532.8
2023-04-08T01:35:40.083Z,532.5
2023-04-08T01:36:41.926Z,532.1
2023-04-08T01:37:43.842Z,532.1
2023-04-08T01:38:45.621Z,531.8
2023-04-08T01:39:47.552Z,531.7
2023-04-08T01:40:49.293Z,531.9
2023-04-08T01:41:51.158Z,531.6
2023-04-08T01:42:52.955Z,531.7
2023-04-08T01:43:54.873Z,531.8
2023-04-08T01:44:56.661Z,531.7
2023-04-08T01:45:58.974Z,531.7
2023-04-08T01:47:01.075Z,531.5
2023-04-08T01:48:03.099Z,531.5
2023-04-08T01:49:05.170Z,531.2
2023-04-08T01:50:07.057Z,531.4
2023-04-08T01:51:08.934Z,531.5
2023-04-08T01:52:10.805Z,531.3
2023-04-08T01:53:12.745Z,531.4
2023-04-08T01:54:14.787Z,531.6
2023-04-08T01:55:16.640Z,531.5
2023-04-08T01:56:18.581Z,531.4
2023-04-08T01:57:20.329Z,531.3
2023-04-08T01:58:22.314Z,531.2
2023-04-08T01:59:24.242Z,531.1
2023-04-08T02:00:26.024Z,531
2023-04-08T02:01:28.026Z,530.8
2023-04-08T02:02:30.619Z,530.7
2023-04-08T02:03:33.349Z,530.4
2023-04-08T02:04:36.040Z,530.4
2023-04-08T02:05:37.934Z,530.5
2023-04-08T02:06:39.859Z,530.4
2023-04-08T02:07:41.734Z,530.1
2023-04-08T02:08:43.636Z,530
2023-04-08T02:09:45.500Z,529.9
2023-04-08T02:10:47.468Z,529.9
2023-04-08T02:11:49.313Z,530
2023-04-08T02:12:51.265Z,530.1
2023-04-08T02:13:53.010Z,529.7
2023-04-08T02:14:54.800Z,530.1
2023-04-08T02:15:56.708Z,529.8
2023-04-08T02:16:58.567Z,529.8
2023-04-08T02:18:00.680Z,529.8
2023-04-08T02:19:02.564Z,529.9
2023-04-08T02:20:04.365Z,529.8
2023-04-08T02:21:06.159Z,529.5
2023-04-08T02:22:08.018Z,529.8
2023-04-08T02:23:09.980Z,529.6
2023-04-08T02:24:11.829Z,529.8
2023-04-08T02:25:13.661Z,529.5
2023-04-08T02:26:15.635Z,529.7
2023-04-08T02:27:17.458Z,529.8
2023-04-08T02:28:19.451Z,529.6
2023-04-08T02:29:21.307Z,529.8
2023-04-08T02:30:23.117Z,529.9
2023-04-08T02:31:25.093Z,530.1
2023-04-08T02:32:27.125Z,530.3
2023-04-08T02:33:29.078Z,529.8
2023-04-08T02:34:30.946Z,530
2023-04-08T02:35:33.143Z,530
2023-04-08T02:36:35.033Z,529.8
2023-04-08T02:37:36.988Z,530
2023-04-08T02:38:38.869Z,529.9
2023-04-08T02:39:40.799Z,529.9
2023-04-08T02:40:42.748Z,530.2
2023-04-08T02:41:44.593Z,529.9
2023-04-08T02:42:46.452Z,530
2023-04-08T02:43:48.233Z,529.7
2023-04-08T02:44:50.035Z,529.5
2023-04-08T02:45:52.202Z,529.8
2023-04-08T02:46:54.044Z,529.8
2023-04-08T02:47:56.122Z,529.7
2023-04-08T02:48:58.060Z,529.4
2023-04-08T02:50:00.008Z,529.3
2023-04-08T02:51:02.142Z,529.4
2023-04-08T02:52:04.112Z,529.5
2023-04-08T02:53:05.977Z,529.5
2023-04-08T02:54:07.855Z,529.6
2023-04-08T02:55:09.778Z,529.9
2023-04-08T02:56:11.755Z,529.9
2023-04-08T02:57:13.580Z,529.7
2023-04-08T02:58:15.534Z,529.9
2023-04-08T02:59:17.378Z,529.4
2023-04-08T03:00:19.229Z,529.8
2023-04-08T03:01:21.415Z,529.9
2023-04-08T03:02:24.112Z,529.7
2023-04-08T03:03:26.469Z,529.6
2023-04-08T03:04:28.369Z,529.3
2023-04-08T03:05:30.117Z,529.4
2023-04-08T03:06:31.831Z,529.1
2023-04-08T03:07:33.707Z,529.1
2023-04-08T03:08:35.593Z,529.1
2023-04-08T03:09:37.442Z,529.4
2023-04-08T03:10:39.370Z,529.4
2023-04-08T03:11:41.217Z,529.5
2023-04-08T03:12:43.169Z,529.7
2023-04-08T03:13:45.023Z,529.8
2023-04-08T03:14:46.861Z,530
2023-04-08T03:15:48.722Z,529.9
2023-04-08T03:16:50.938Z,529.6
2023-04-08T03:17:53.110Z,529.8
2023-04-08T03:18:54.996Z,529.5
2023-04-08T03:19:56.737Z,529.8
2023-04-08T03:20:58.590Z,530.1
2023-04-08T03:22:00.535Z,530
2023-04-08T03:23:02.338Z,529.8
2023-04-08T03:24:04.242Z,529.8
2023-04-08T03:25:06.112Z,529.9
2023-04-08T03:26:07.940Z,529.6
2023-04-08T03:27:09.894Z,529.3
2023-04-08T03:28:12.049Z,529.2
2023-04-08T03:29:14.107Z,529.3
2023-04-08T03:30:16.254Z,529.3
2023-04-08T03:31:18.289Z,529
2023-04-08T03:32:20.266Z,529.1
2023-04-08T03:33:22.110Z,529
2023-04-08T03:34:23.959Z,529.3
2023-04-08T03:35:25.832Z,529.4
2023-04-08T03:36:27.775Z,529
2023-04-08T03:37:29.714Z,528.9
2023-04-08T03:38:31.569Z,528.7
2023-04-08T03:39:33.417Z,528.9
2023-04-08T03:40:35.297Z,528.9
2023-04-08T03:41:37.044Z,529.2
2023-04-08T03:42:38.970Z,529.2
2023-04-08T03:43:40.746Z,529.4
2023-04-08T03:44:42.663Z,529.1
2023-04-08T03:45:44.673Z,528.9
2023-04-08T03:46:46.567Z,529.3
2023-04-08T03:47:48.545Z,529
2023-04-08T03:48:51.377Z,528.9
2023-04-08T03:49:53.346Z,529.2
2023-04-08T03:50:55.211Z,529.4
2023-04-08T03:51:57.160Z,529.3
2023-04-08T03:52:59.005Z,529.2
2023-04-08T03:54:01.158Z,529.2
2023-04-08T03:55:03.018Z,529
2023-04-08T03:56:04.995Z,529.2
2023-04-08T03:57:06.911Z,529.2
2023-04-08T03:58:08.877Z,529.6
2023-04-08T03:59:10.819Z,529.5
2023-04-08T04:00:12.676Z,529.4
2023-04-08T04:01:14.520Z,529.9
2023-04-08T04:02:16.727Z,529.6
2023-04-08T04:03:19.295Z,529.5
2023-04-08T04:04:22.681Z,529.3
2023-04-08T04:05:24.541Z,529.4
2023-04-08T04:06:26.435Z,529.3
2023-04-08T04:07:28.272Z,529.4
2023-04-08T04:08:30.130Z,529.6
2023-04-08T04:09:31.974Z,529.5
2023-04-08T04:10:33.828Z,529.5
2023-04-08T04:11:35.825Z,529.6
2023-04-08T04:12:37.736Z,529.8
2023-04-08T04:13:39.581Z,529.9
2023-04-08T04:14:41.341Z,529.8
2023-04-08T04:15:43.389Z,529.5
2023-04-08T04:16:45.337Z,529.6
2023-04-08T04:17:47.409Z,529.5
2023-04-08T04:18:50.805Z,529.3
2023-04-08T04:19:52.947Z,529.5
2023-04-08T04:20:54.788Z,529.2
2023-04-08T04:21:56.721Z,528.9
2023-04-08T04:22:58.594Z,528.5
2023-04-08T04:24:00.441Z,528.4
2023-04-08T04:25:02.517Z,528.3
2023-04-08T04:26:04.250Z,528.1
2023-04-08T04:27:06.112Z,528.2
2023-04-08T04:28:07.962Z,528.3
2023-04-08T04:29:09.800Z,528.3
2023-04-08T04:30:11.844Z,528.3
2023-04-08T04:31:13.932Z,528
2023-04-08T04:32:15.653Z,528.2
2023-04-08T04:33:17.593Z,528
2023-04-08T04:34:19.461Z,528.3
2023-04-08T04:35:21.629Z,528.3
2023-04-08T04:36:23.365Z,528.3
2023-04-08T04:37:25.213Z,528.9
2023-04-08T04:38:27.059Z,528.7
2023-04-08T04:39:29.003Z,528.4
2023-04-08T04:40:30.861Z,528.5
2023-04-08T04:41:32.714Z,528.2
2023-04-08T04:42:34.586Z,528.5
2023-04-08T04:43:36.325Z,528.6
2023-04-08T04:44:38.102Z,528.7
2023-04-08T04:45:39.905Z,528.8
2023-04-08T04:46:41.869Z,528.9
2023-04-08T04:47:44.441Z,529
2023-04-08T04:48:46.380Z,529.1
2023-04-08T04:49:48.065Z,529
2023-04-08T04:50:49.874Z,528.6
2023-04-08T04:51:51.793Z,528.9
2023-04-08T04:52:53.712Z,528.7
2023-04-08T04:53:55.534Z,528.4
2023-04-08T04:54:57.477Z,528.7
2023-04-08T04:55:59.329Z,528.7
2023-04-08T04:57:01.172Z,528.6
2023-04-08T04:58:03.250Z,528.5
2023-04-08T04:59:05.077Z,528
2023-04-08T05:00:06.832Z,528.1
2023-04-08T05:01:08.678Z,528.1
2023-04-08T05:02:11.119Z,527.9
2023-04-08T05:03:13.404Z,528.2
2023-04-08T05:04:15.462Z,527.8
2023-04-08T05:05:17.436Z,527.7
2023-04-08T05:06:19.384Z,527.9
2023-04-08T05:07:21.223Z,527.9
2023-04-08T05:08:23.168Z,527.8
2023-04-08T05:09:25.129Z,527.7
2023-04-08T05:10:26.978Z,527.8
2023-04-08T05:11:28.819Z,527.9
2023-04-08T05:12:30.665Z,528
2023-04-08T05:13:32.548Z,527.6
2023-04-08T05:14:34.454Z,528.3
2023-04-08T05:15:36.223Z,527.9
2023-04-08T05:16:38.425Z,528.1
2023-04-08T05:17:40.652Z,527.9
2023-04-08T05:18:42.496Z,527.9
2023-04-08T05:19:44.344Z,528.3
2023-04-08T05:20:46.195Z,528.3
2023-04-08T05:21:48.044Z,528.1
2023-04-08T05:22:49.797Z,528.3
2023-04-08T05:23:51.641Z,528
2023-04-08T05:24:53.483Z,528
2023-04-08T05:25:55.247Z,528
2023-04-08T05:26:57.187Z,528.2
2023-04-08T05:27:58.836Z,528.1
2023-04-08T05:29:00.713Z,527.9
2023-04-08T05:30:02.656Z,528
2023-04-08T05:31:04.724Z,528.2
2023-04-08T05:32:06.649Z,527.7
2023-04-08T05:33:08.721Z,527.8
2023-04-08T05:34:10.658Z,527.8
2023-04-08T05:35:12.508Z,527.7
2023-04-08T05:36:14.451Z,527.8
2023-04-08T05:37:16.302Z,527.4
2023-04-08T05:38:18.159Z,527.7
2023-04-08T05:39:20.003Z,527.7
2023-04-08T05:40:21.976Z,527.7
2023-04-08T05:41:23.812Z,527.8
2023-04-08T05:42:25.768Z,527.7
2023-04-08T05:43:27.618Z,527.7
2023-04-08T05:44:29.599Z,527.8
2023-04-08T05:45:31.412Z,527.2
2023-04-08T05:46:33.397Z,527.2
2023-04-08T05:47:35.457Z,527.9
2023-04-08T05:48:37.266Z,527.8
2023-04-08T05:49:39.121Z,527.7
2023-04-08T05:50:40.876Z,527.7
2023-04-08T05:51:42.716Z,527.7
2023-04-08T05:52:44.673Z,527.8
2023-04-08T05:53:46.472Z,527.5
2023-04-08T05:54:48.377Z,527.6
2023-04-08T05:55:50.227Z,527.9
2023-04-08T05:56:52.070Z,527.8
2023-04-08T05:57:53.911Z,528
2023-04-08T05:58:55.765Z,527.8
2023-04-08T05:59:57.842Z,528
2023-04-08T06:00:59.671Z,527.8
2023-04-08T06:02:01.889Z,528
2023-04-08T06:03:05.582Z,527.9
2023-04-08T06:04:08.454Z,528
2023-04-08T06:05:10.487Z,528
2023-04-08T06:06:12.410Z,527.5
2023-04-08T06:07:14.242Z,527.4
2023-04-08T06:08:16.113Z,527.9
2023-04-08T06:09:18.054Z,528
2023-04-08T06:10:20.001Z,527.9
2023-04-08T06:11:21.858Z,528
2023-04-08T06:12:23.704Z,527.5
2023-04-08T06:13:25.868Z,527.7
2023-04-08T06:14:27.708Z,527.6
2023-04-08T06:15:29.704Z,527.9
2023-04-08T06:16:31.777Z,527.8
2023-04-08T06:17:33.775Z,527.7
2023-04-08T06:18:35.730Z,527.9
2023-04-08T06:19:37.472Z,527.9
2023-04-08T06:20:39.421Z,527.8
2023-04-08T06:21:41.293Z,528.2
2023-04-08T06:22:43.120Z,527.9
2023-04-08T06:23:44.970Z,528.1
2023-04-08T06:24:46.754Z,527.7
2023-04-08T06:25:48.581Z,528
2023-04-08T06:26:50.532Z,528
2023-04-08T06:27:52.373Z,528.3
2023-04-08T06:28:54.222Z,528
2023-04-08T06:29:56.089Z,528.1
2023-04-08T06:30:58.265Z,528
2023-04-08T06:32:00.558Z,527.8
2023-04-08T06:33:02.732Z,528
2023-04-08T06:34:04.706Z,528.2
2023-04-08T06:35:06.561Z,527.8
2023-04-08T06:36:08.719Z,528
2023-04-08T06:37:10.560Z,527.7
2023-04-08T06:38:12.405Z,527.9
2023-04-08T06:39:14.495Z,527.4
2023-04-08T06:40:16.446Z,527.4
2023-04-08T06:41:18.267Z,527.3
2023-04-08T06:42:23.411Z,527.2
2023-04-08T06:43:25.241Z,527.3
2023-04-08T06:44:27.099Z,527.3
2023-04-08T06:45:29.166Z,527
2023-04-08T06:46:31.132Z,527.3
2023-04-08T06:47:33.078Z,526.9
2023-04-08T06:48:34.915Z,527.1
2023-04-08T06:49:36.763Z,527.2
2023-04-08T06:50:38.616Z,527.4
2023-04-08T06:51:40.566Z,527.2
2023-04-08T06:52:42.408Z,527
2023-04-08T06:53:44.265Z,527.1
2023-04-08T06:54:46.215Z,527.2
2023-04-08T06:55:48.067Z,527
2023-04-08T06:56:50.013Z,526.8
2023-04-08T06:57:51.869Z,527.2
2023-04-08T06:58:53.858Z,527
2023-04-08T06:59:55.750Z,527
2023-04-08T07:00:57.760Z,527.6
2023-04-08T07:02:00.378Z,527.1
2023-04-08T07:03:02.896Z,527.3
2023-04-08T07:04:05.028Z,527
2023-04-08T07:05:06.869Z,527.1
2023-04-08T07:06:08.706Z,527.4
2023-04-08T07:07:10.557Z,527.6
2023-04-08T07:08:12.412Z,527.5
2023-04-08T07:09:14.268Z,526.9
2023-04-08T07:10:16.225Z,527
2023-04-08T07:11:18.478Z,527.1
2023-04-08T07:12:20.329Z,526.9
2023-04-08T07:13:22.173Z,527.2
2023-04-08T07:14:24.131Z,527.4
2023-04-08T07:15:26.079Z,527.2
2023-04-08T07:16:28.181Z,527.2
2023-04-08T07:17:30.216Z,527
2023-04-08T07:18:32.052Z,527.2
2023-04-08T07:19:33.993Z,526.9
2023-04-08T07:20:35.846Z,526.9
2023-04-08T07:21:37.687Z,526.6
2023-04-08T07:22:39.554Z,526.5
2023-04-08T07:23:41.396Z,526.4
2023-04-08T07:24:43.240Z,526.4
2023-04-08T07:25:45.198Z,526.5
2023-04-08T07:26:47.060Z,526.6
2023-04-08T07:27:48.892Z,526.7
2023-04-08T07:28:52.117Z,526.7
2023-04-08T07:29:54.130Z,526.3
2023-04-08T07:30:56.307Z,526.6
2023-04-08T07:31:58.246Z,526.3
2023-04-08T07:33:02.108Z,526.6
2023-04-08T07:34:04.021Z,526.2
2023-04-08T07:35:05.870Z,526.2
2023-04-08T07:36:07.793Z,526.1
2023-04-08T07:37:09.646Z,526.2
2023-04-08T07:38:11.661Z,526.3
2023-04-08T07:39:13.543Z,526.3
2023-04-08T07:40:15.293Z,526.3
2023-04-08T07:41:17.251Z,525.9
2023-04-08T07:42:19.103Z,526.1
2023-04-08T07:43:20.941Z,525.9
2023-04-08T07:44:22.908Z,525.7
2023-04-08T07:45:24.930Z,526
2023-04-08T07:46:27.181Z,525.7
2023-04-08T07:47:29.194Z,525.6
2023-04-08T07:48:31.141Z,525.4
2023-04-08T07:49:33.092Z,525.5
2023-04-08T07:51:12.098Z,525.3
2023-04-08T07:52:13.940Z,525.1
2023-04-08T07:53:15.789Z,525.3
2023-04-08T07:54:17.739Z,525.1
2023-04-08T07:55:19.950Z,525.4
2023-04-08T07:56:22.262Z,525
2023-04-08T07:57:24.410Z,525.5
2023-04-08T07:58:27.002Z,525
2023-04-08T07:59:28.965Z,524.8
2023-04-08T08:00:30.797Z,524.8
2023-04-08T08:01:32.974Z,525
2023-04-08T08:02:35.242Z,524.8
2023-04-08T08:03:38.030Z,525
2023-04-08T08:04:41.413Z,524.7
2023-04-08T08:05:43.252Z,524.5
2023-04-08T08:06:45.067Z,524.7
2023-04-08T08:07:46.927Z,524.8
2023-04-08T08:08:48.874Z,525.3
2023-04-08T08:09:50.719Z,524.8
2023-04-08T08:10:52.562Z,524.6
2023-04-08T08:11:54.448Z,524.7
2023-04-08T08:12:56.261Z,524.6
2023-04-08T08:13:58.127Z,524.9
2023-04-08T08:14:59.975Z,524.8
2023-04-08T08:16:02.097Z,524.6
2023-04-08T08:17:03.983Z,524.6
2023-04-08T08:18:06.056Z,524.5
2023-04-08T08:19:08.017Z,524.8
2023-04-08T08:20:09.929Z,524.9
2023-04-08T08:21:11.626Z,524.9
2023-04-08T08:22:13.359Z,525
2023-04-08T08:23:15.413Z,524.9
2023-04-08T08:24:17.336Z,524.7
2023-04-08T08:25:19.182Z,525
2023-04-08T08:26:21.038Z,525
2023-04-08T08:27:22.883Z,524.8
2023-04-08T08:28:24.651Z,524.6
2023-04-08T08:29:26.494Z,525
2023-04-08T08:30:28.440Z,524.5
2023-04-08T08:31:30.439Z,524.5
2023-04-08T08:32:32.445Z,524.6
2023-04-08T08:33:34.505Z,524.6
2023-04-08T08:34:36.378Z,524.1
2023-04-08T08:35:38.569Z,524
2023-04-08T08:36:40.459Z,523.9
2023-04-08T08:37:42.304Z,524
2023-04-08T08:38:44.152Z,524
2023-04-08T08:39:46.211Z,523.7
2023-04-08T08:40:48.076Z,523.6
2023-04-08T08:41:49.919Z,523.7
2023-04-08T08:42:51.869Z,523.6
2023-04-08T08:43:53.819Z,523.5
2023-04-08T08:44:55.675Z,523.5
2023-04-08T08:45:57.524Z,523.6
2023-04-08T08:46:59.750Z,523.4
2023-04-08T08:48:01.949Z,523.2
2023-04-08T08:49:03.889Z,523.5
2023-04-08T08:50:05.871Z,523.5
2023-04-08T08:51:07.786Z,523.4
2023-04-08T08:52:09.644Z,523.2
2023-04-08T08:53:11.907Z,523.7
2023-04-08T08:54:13.757Z,523.2
2023-04-08T08:57:15.332Z,522.8
2023-04-08T08:58:17.192Z,522.5
2023-04-08T08:59:18.935Z,522.3
2023-04-08T09:00:20.974Z,522.3
2023-04-08T09:01:22.841Z,522.1
2023-04-08T09:02:25.409Z,522.4
2023-04-08T09:03:29.056Z,522.6
2023-04-08T09:04:31.607Z,522.6
2023-04-08T09:05:34.309Z,522.7
2023-04-08T09:06:36.280Z,522.7
2023-04-08T09:07:38.108Z,522.4
2023-04-08T09:08:39.884Z,522.2
2023-04-08T09:09:41.709Z,522
2023-04-08T09:10:43.665Z,522.4
2023-04-08T09:11:45.513Z,522.2
2023-04-08T09:12:47.288Z,521.9
2023-04-08T09:13:50.199Z,522.1
2023-04-08T09:14:52.188Z,522.5
2023-04-08T09:15:54.252Z,522.1
2023-04-08T09:16:56.086Z,522.1
2023-04-08T09:17:58.088Z,521.9
2023-04-08T09:18:59.992Z,522.2
2023-04-08T09:20:01.850Z,522.2
2023-04-08T09:21:03.910Z,522
2023-04-08T09:22:05.688Z,522.2
2023-04-08T09:23:07.399Z,521.9
2023-04-08T09:24:09.252Z,522.4
2023-04-08T09:25:11.090Z,522.2
2023-04-08T09:26:12.862Z,522.3
2023-04-08T09:27:14.704Z,522.4
2023-04-08T09:28:16.540Z,522.3
2023-04-08T09:29:34.727Z,522.5
2023-04-08T09:30:37.471Z,522.9
2023-04-08T09:31:39.447Z,522.5
2023-04-08T09:32:41.364Z,522.9
2023-04-08T09:33:43.306Z,523.2
2023-04-08T09:34:45.153Z,523
2023-04-08T09:35:47.121Z,523.3
2023-04-08T09:36:49.002Z,523.3
2023-04-08T09:37:50.816Z,523.4
2023-04-08T09:38:52.766Z,523.8
2023-04-08T09:39:54.477Z,524
2023-04-08T09:40:56.363Z,524.3
2023-04-08T09:41:58.235Z,524.1
2023-04-08T09:43:00.063Z,524.6
2023-04-08T09:44:01.904Z,524.9
2023-04-08T09:45:03.767Z,525
2023-04-08T09:46:05.892Z,524.8
2023-04-08T09:47:07.881Z,525.2
2023-04-08T09:48:09.714Z,525.3
2023-04-08T09:49:11.587Z,525.4
2023-04-08T09:50:13.423Z,525.2
2023-04-08T09:51:15.191Z,525.5
2023-04-08T09:52:17.153Z,525.2
2023-04-08T09:53:19.073Z,525.5
2023-04-08T09:54:21.239Z,525.4
2023-04-08T09:55:23.077Z,525.8
2023-04-08T09:56:24.881Z,525.6
2023-04-08T09:57:26.886Z,525.6
2023-04-08T09:58:28.631Z,525.3
2023-04-08T09:59:30.583Z,525.3
2023-04-08T10:00:32.452Z,525.7
2023-04-08T10:01:34.857Z,526.1
2023-04-08T10:02:37.476Z,526.3
2023-04-08T10:03:40.245Z,526.4
2023-04-08T10:04:42.358Z,526.3
2023-04-08T10:05:44.250Z,526.2
2023-04-08T10:06:46.100Z,526.3
2023-04-08T10:07:47.973Z,526.8
2023-04-08T10:08:49.912Z,526.9
2023-04-08T10:09:51.740Z,526.6
2023-04-08T10:10:53.577Z,526.7
2023-04-08T10:11:55.443Z,526.5
2023-04-08T10:12:57.299Z,526.3
2023-04-08T10:13:59.138Z,526.5
2023-04-08T10:15:00.906Z,526.6
2023-04-08T10:16:02.750Z,526.9
2023-04-08T10:17:04.967Z,526.7
2023-04-08T10:18:07.183Z,527
2023-04-08T10:19:09.110Z,527
2023-04-08T10:20:10.958Z,527.3
2023-04-08T10:21:12.914Z,527.1
2023-04-08T10:22:14.670Z,526.9
2023-04-08T10:23:16.539Z,527.3
2023-04-08T10:24:18.367Z,527
2023-04-08T10:25:20.325Z,527.1
2023-04-08T10:26:22.065Z,527.6
2023-04-08T10:27:23.819Z,527.1
2023-04-08T10:28:25.764Z,527.5
2023-04-08T10:29:27.717Z,527.1
2023-04-08T10:30:29.563Z,526.9
2023-04-08T10:31:31.447Z,527.1
2023-04-08T10:32:33.405Z,527.3
2023-04-08T10:33:41.275Z,527.4
2023-04-08T10:34:43.120Z,527.6
2023-04-08T10:35:45.167Z,527.3
2023-04-08T10:36:46.918Z,527.8
2023-04-08T10:37:48.755Z,528
2023-04-08T10:38:50.749Z,527.8
2023-04-08T10:39:52.665Z,527.5
2023-04-08T10:40:54.522Z,527.4
2023-04-08T10:41:56.502Z,527.8
2023-04-08T10:42:58.422Z,527.7
2023-04-08T10:44:00.278Z,527.9
2023-04-08T10:45:02.227Z,527.7
2023-04-08T10:46:04.108Z,527.7
2023-04-08T10:47:06.027Z,528.1
2023-04-08T10:48:07.879Z,528
2023-04-08T10:49:09.726Z,528.1
2023-04-08T10:50:11.571Z,528
2023-04-08T10:51:13.431Z,528.2
2023-04-08T10:52:15.372Z,528.4
2023-04-08T10:53:17.224Z,528.4
2023-04-08T10:54:19.104Z,528.3
2023-04-08T10:55:21.035Z,528.4
2023-04-08T10:56:22.885Z,528.6
2023-04-08T10:57:24.844Z,528.6
2023-04-08T10:58:26.680Z,529
2023-04-08T10:59:28.551Z,529.4
2023-04-08T11:00:30.380Z,529.5
2023-04-08T11:01:32.755Z,529.3
2023-04-08T11:02:35.211Z,529.6
2023-04-08T11:03:38.728Z,529.6
2023-04-08T11:04:40.905Z,530
2023-04-08T11:05:42.805Z,530
2023-04-08T11:06:44.754Z,530.6
2023-04-08T11:07:46.517Z,530.7
2023-04-08T11:08:48.277Z,530.8
2023-04-08T11:09:50.135Z,530.5
2023-04-08T11:10:51.975Z,530.8
2023-04-08T11:11:53.918Z,530.9
2023-04-08T11:12:55.862Z,530.6
2023-04-08T11:13:59.215Z,530.5
2023-04-08T11:15:01.209Z,530.6
2023-04-08T11:16:03.584Z,530.5
2023-04-08T11:17:05.424Z,530.5
2023-04-08T11:18:07.715Z,530.8
2023-04-08T11:19:09.627Z,530.7
2023-04-08T11:20:11.487Z,531.1
2023-04-08T11:21:13.436Z,530.8
2023-04-08T11:22:15.375Z,530.8
2023-04-08T11:23:17.330Z,530.5
2023-04-08T11:24:19.189Z,530.7
2023-04-08T11:25:21.253Z,530.4
2023-04-08T11:26:23.190Z,530.6
2023-04-08T11:27:25.256Z,530.9
2023-04-08T11:28:27.093Z,530.7
2023-04-08T11:29:28.949Z,530.7
2023-04-08T11:30:30.800Z,531.1
2023-04-08T11:31:33.024Z,531.1
2023-04-08T11:32:35.231Z,530.8
2023-04-08T11:33:37.137Z,531.1
2023-04-08T11:34:39.012Z,531.1
2023-04-08T11:35:41.246Z,531
2023-04-08T11:36:43.221Z,531.2
2023-04-08T11:37:45.082Z,531.2
2023-04-08T11:38:46.931Z,531.3
2023-04-08T11:39:48.794Z,531.1
2023-04-08T11:40:50.748Z,531.5
2023-04-08T11:41:52.690Z,531.8
2023-04-08T11:42:54.945Z,532.1
2023-04-08T11:43:56.968Z,531.6
2023-04-08T11:44:58.847Z,531.7
2023-04-08T11:46:01.526Z,531.7
2023-04-08T11:47:03.311Z,531.5
2023-04-08T11:48:05.707Z,531.7
2023-04-08T11:49:07.711Z,531.9
2023-04-08T11:50:09.626Z,531.7
2023-04-08T11:51:11.481Z,531.7
2023-04-08T11:52:13.430Z,532.2
2023-04-08T11:53:15.276Z,532.5
2023-04-08T11:54:17.138Z,532.8
2023-04-08T11:55:18.988Z,532.5
2023-04-08T11:56:20.862Z,532.8
2023-04-08T11:57:22.784Z,533
2023-04-08T11:58:24.630Z,533
2023-04-08T11:59:30.282Z,533.1
2023-04-08T12:00:32.027Z,533.2
2023-04-08T12:01:34.104Z,533.3
2023-04-08T12:02:36.474Z,533
2023-04-08T12:03:39.293Z,532.7
2023-04-08T12:04:41.498Z,533.2
2023-04-08T12:05:43.555Z,533.2
2023-04-08T12:06:45.371Z,532.9
2023-04-08T12:07:47.224Z,533.1
2023-04-08T12:08:49.184Z,533.4
2023-04-08T12:09:51.473Z,534.2
2023-04-08T12:10:53.291Z,533.6
2023-04-08T12:11:55.268Z,533.6
2023-04-08T12:12:57.211Z,533.4
2023-04-08T12:13:59.059Z,534.1
2023-04-08T12:15:00.989Z,534.3
2023-04-08T12:16:03.091Z,533.8
2023-04-08T12:17:04.897Z,533.8
2023-04-08T12:18:06.972Z,533.2
2023-04-08T12:19:08.931Z,533.8
2023-04-08T12:20:10.793Z,533
2023-04-08T12:21:12.612Z,533.1
2023-04-08T12:22:14.455Z,533.1
2023-04-08T12:23:16.318Z,533.1
2023-04-08T12:24:18.255Z,533.7
2023-04-08T12:25:20.118Z,533.8
2023-04-08T12:26:21.961Z,534
2023-04-08T12:27:23.932Z,533.5
2023-04-08T12:28:25.856Z,533.9
2023-04-08T12:29:27.717Z,533.5
2023-04-08T12:30:29.664Z,533.4
2023-04-08T12:31:31.970Z,533.3
2023-04-08T12:32:34.127Z,533.4
2023-04-08T12:33:35.937Z,533.3
2023-04-08T12:34:37.792Z,533.6
2023-04-08T12:35:39.992Z,534.1
2023-04-08T12:36:42.613Z,534.3
2023-04-08T12:37:44.408Z,534.3
2023-04-08T12:38:46.210Z,534.4
2023-04-08T12:39:48.062Z,534.5
2023-04-08T12:40:50.943Z,534.4
2023-04-08T12:41:52.896Z,534.6
2023-04-08T12:42:54.770Z,534.3
2023-04-08T12:43:56.584Z,534.4
2023-04-08T12:44:58.456Z,534.9
2023-04-08T12:46:00.403Z,535.3
2023-04-08T12:47:02.588Z,535.3
2023-04-08T12:48:04.763Z,534.9
2023-04-08T12:49:08.236Z,535.1
2023-04-08T12:50:10.798Z,535.1
2023-04-08T12:51:12.722Z,535.7
2023-04-08T12:52:14.570Z,535.2
2023-04-08T12:53:16.343Z,535.6
2023-04-08T12:54:18.158Z,535.8
2023-04-08T12:55:20.006Z,535.9
2023-04-08T12:56:21.975Z,535.6
2023-04-08T12:57:23.706Z,535.8
2023-04-08T12:58:25.489Z,536.1
2023-04-08T12:59:27.318Z,536.4
2023-04-08T13:00:29.162Z,536.2
2023-04-08T13:01:32.090Z,536.2
2023-04-08T13:02:34.329Z,536.1
2023-04-08T13:03:36.765Z,536.5
2023-04-08T13:04:38.712Z,536.4
2023-04-08T13:05:44.549Z,536.1
2023-04-08T13:06:46.607Z,536.2
2023-04-08T13:07:48.462Z,536.4
2023-04-08T13:08:51.556Z,536.1
2023-04-08T13:09:53.587Z,536.3
2023-04-08T13:10:55.461Z,536.8
2023-04-08T13:11:57.402Z,537
2023-04-08T13:12:59.251Z,536.8
2023-04-08T13:14:01.224Z,537.1
2023-04-08T13:15:03.047Z,537.4
2023-04-08T13:16:04.901Z,537.7
2023-04-08T13:17:06.859Z,538
2023-04-08T13:18:09.169Z,538
2023-04-08T13:19:11.162Z,537.9
2023-04-08T13:20:13.126Z,538.1
2023-04-08T13:21:14.868Z,537.9
2023-04-08T13:22:16.729Z,538.1
2023-04-08T13:23:18.670Z,538.3
2023-04-08T13:24:20.417Z,538.4
2023-04-08T13:25:22.284Z,538.2
2023-04-08T13:26:24.219Z,538.1
2023-04-08T13:27:26.066Z,538.3